Terminal Aerodrome Forecast
Issued by NWS

Home | Current Version | Previous Version | Graphics & Text | Print | Product List | Glossary On
Versions: 1 2 3 4 5 6 7 8 9 10 11 12 13 14 15 16 17 18 19 20 21 22 23 24
000
FTUS43 KGRB 221700
TAFRHI
TAF
KRHI 221722Z 2218/2318 30012G18KT P6SM -SHSN SCT025 OVC035
      TEMPO 2218/2222 3SM -SHSN SCT012 BKN025
     FM222200 30011G17KT P6SM -SHSN SCT030 BKN045
      TEMPO 2222/2302 4SM -SHSN BKN030
     FM230200 30007KT P6SM -SHSN BKN025 OVC040
     FM231100 29006KT P6SM SCT025 BKN040
     FM231500 29010KT P6SM SCT035=

USA.gov is the U.S. government's official web portal to all federal, state and local government web resources and services.